createdAt,value
2022-09-02T00:01:38.362Z,100.00
2022-09-02T00:04:04.593Z,100.00
2022-09-02T00:06:30.859Z,100.00
2022-09-02T00:08:57.128Z,100.00
2022-09-02T00:11:23.478Z,100.00
2022-09-02T00:13:49.786Z,100.00
2022-09-02T00:16:16.049Z,100.00
2022-09-02T00:18:45.777Z,100.00
2022-09-02T00:21:12.248Z,100.00
2022-09-02T00:23:38.491Z,100.00
2022-09-02T00:26:04.739Z,100.00
2022-09-02T00:28:30.993Z,100.00
2022-09-02T00:30:57.210Z,100.00
2022-09-02T00:33:23.550Z,100.00
2022-09-02T00:35:49.774Z,100.00
2022-09-02T00:38:15.999Z,100.00
2022-09-02T00:40:42.307Z,100.00
2022-09-02T00:43:10.440Z,100.00
2022-09-02T00:45:36.717Z,100.00
2022-09-02T00:48:02.967Z,100.00
2022-09-02T00:50:29.189Z,100.00
2022-09-02T00:52:55.830Z,100.00
2022-09-02T00:55:22.061Z,100.00
2022-09-02T00:57:48.440Z,100.00
2022-09-02T01:00:14.698Z,100.00
2022-09-02T01:02:40.937Z,100.00
2022-09-02T01:05:07.149Z,100.00
2022-09-02T01:07:33.516Z,100.00
2022-09-02T01:09:59.752Z,100.00
2022-09-02T01:12:25.993Z,100.00
2022-09-02T01:14:52.216Z,100.00
2022-09-02T01:17:18.453Z,100.00
2022-09-02T01:19:44.678Z,100.00
2022-09-02T01:22:10.910Z,100.00
2022-09-02T01:24:37.129Z,100.00
2022-09-02T01:27:03.366Z,100.00
2022-09-02T01:29:29.582Z,100.00
2022-09-02T01:31:55.895Z,100.00
2022-09-02T01:34:22.178Z,100.00
2022-09-02T01:36:48.420Z,100.00
2022-09-02T01:39:14.631Z,100.00
2022-09-02T01:41:40.863Z,100.00
2022-09-02T01:44:07.098Z,100.00
2022-09-02T01:46:33.460Z,100.00
2022-09-02T01:48:59.732Z,100.00
2022-09-02T01:51:25.997Z,100.00
2022-09-02T01:53:52.212Z,100.00
2022-09-02T01:56:18.458Z,100.00
2022-09-02T01:58:44.732Z,100.00
2022-09-02T02:01:11.010Z,100.00
2022-09-02T02:03:37.370Z,100.00
2022-09-02T02:06:04.396Z,100.00
2022-09-02T02:08:30.640Z,100.00
2022-09-02T02:10:56.872Z,100.00
2022-09-02T02:13:23.225Z,100.00
2022-09-02T02:15:49.607Z,100.00
2022-09-02T02:18:15.864Z,100.00
2022-09-02T02:20:42.915Z,100.00
2022-09-02T02:23:11.276Z,100.00
2022-09-02T02:25:37.506Z,100.00
2022-09-02T02:28:03.721Z,100.00
2022-09-02T02:30:31.856Z,100.00
2022-09-02T02:32:58.151Z,100.00
2022-09-02T02:35:24.385Z,100.00
2022-09-02T02:37:50.612Z,100.00
2022-09-02T02:40:16.893Z,100.00
2022-09-02T02:42:43.249Z,100.00
2022-09-02T02:45:09.491Z,100.00
2022-09-02T02:47:41.596Z,100.00
2022-09-02T02:50:07.835Z,100.00
2022-09-02T02:52:34.099Z,100.00
2022-09-02T02:55:00.346Z,100.00
2022-09-02T02:57:26.572Z,100.00
2022-09-02T02:59:52.818Z,100.00
2022-09-02T03:02:19.135Z,100.00
2022-09-02T03:04:45.420Z,100.00
2022-09-02T03:07:11.726Z,100.00
2022-09-02T03:09:37.943Z,100.00
2022-09-02T03:12:04.172Z,100.00
2022-09-02T03:14:30.397Z,100.00
2022-09-02T03:16:56.637Z,100.00
2022-09-02T03:19:22.842Z,100.00
2022-09-02T03:21:49.097Z,100.00
2022-09-02T03:24:15.339Z,100.00
2022-09-02T03:26:41.593Z,100.00
2022-09-02T03:29:07.811Z,100.00
2022-09-02T03:31:34.102Z,100.00
2022-09-02T03:34:00.435Z,100.00
2022-09-02T03:36:26.663Z,100.00
2022-09-02T03:38:52.873Z,100.00
2022-09-02T03:41:19.113Z,100.00
2022-09-02T03:43:45.319Z,100.00
2022-09-02T03:46:11.745Z,100.00
2022-09-02T03:48:38.033Z,100.00
2022-09-02T03:51:04.283Z,100.00
2022-09-02T03:53:30.570Z,100.00
2022-09-02T03:55:56.804Z,100.00
2022-09-02T03:58:23.025Z,100.00
2022-09-02T04:00:49.273Z,100.00
2022-09-02T04:03:15.622Z,100.00
2022-09-02T04:05:42.009Z,100.00
2022-09-02T04:08:08.227Z,100.00
2022-09-02T04:10:34.493Z,100.00
2022-09-02T04:13:00.720Z,100.00
2022-09-02T04:15:26.965Z,100.00
2022-09-02T04:17:53.192Z,100.00
2022-09-02T04:20:19.456Z,100.00
2022-09-02T04:22:45.680Z,100.00
2022-09-02T04:25:12.031Z,100.00
2022-09-02T04:27:38.287Z,100.00
2022-09-02T04:30:04.724Z,100.00
2022-09-02T04:32:30.964Z,100.00
2022-09-02T04:34:57.214Z,100.00
2022-09-02T04:37:23.493Z,100.00
2022-09-02T04:39:49.718Z,100.00
2022-09-02T04:42:15.943Z,100.00
2022-09-02T04:44:42.179Z,100.00
2022-09-02T04:47:08.392Z,100.00
2022-09-02T04:49:34.623Z,100.00
2022-09-02T04:52:00.872Z,100.00
2022-09-02T04:54:27.113Z,100.00
2022-09-02T04:56:53.346Z,100.00
2022-09-02T04:59:19.578Z,100.00
2022-09-02T05:01:45.939Z,100.00
2022-09-02T05:04:12.246Z,100.00
2022-09-02T05:06:43.391Z,100.00
2022-09-02T05:09:10.472Z,100.00
2022-09-02T05:11:36.710Z,100.00
2022-09-02T05:14:02.959Z,100.00
2022-09-02T05:16:29.194Z,100.00
2022-09-02T05:18:55.464Z,100.00
2022-09-02T05:21:21.692Z,100.00
2022-09-02T05:23:47.948Z,100.00
2022-09-02T05:26:14.169Z,100.00
2022-09-02T05:28:40.421Z,100.00
2022-09-02T05:31:06.682Z,100.00
2022-09-02T05:33:33.005Z,100.00
2022-09-02T05:35:59.355Z,100.00
2022-09-02T05:38:25.592Z,100.00
2022-09-02T05:40:51.895Z,100.00
2022-09-02T05:43:18.191Z,100.00
2022-09-02T05:45:44.513Z,100.00
2022-09-02T05:48:10.770Z,100.00
2022-09-02T05:50:37.006Z,100.00
2022-09-02T05:53:03.257Z,100.00
2022-09-02T05:55:29.485Z,100.00
2022-09-02T05:57:55.777Z,100.00
2022-09-02T06:00:22.084Z,100.00
2022-09-02T06:02:48.376Z,100.00
2022-09-02T06:05:14.700Z,100.00
2022-09-02T06:07:41.005Z,100.00
2022-09-02T06:10:07.300Z,100.00
2022-09-02T06:12:33.549Z,100.00
2022-09-02T06:14:59.824Z,100.00
2022-09-02T06:17:26.070Z,100.00
2022-09-02T06:19:52.764Z,100.00
2022-09-02T06:22:19.243Z,100.00
2022-09-02T06:24:45.533Z,100.00
2022-09-02T06:27:11.777Z,100.00
2022-09-02T06:29:38.047Z,100.00
2022-09-02T06:32:04.312Z,100.00
2022-09-02T06:34:30.621Z,100.00
2022-09-02T06:36:56.874Z,100.00
2022-09-02T06:39:23.802Z,100.00
2022-09-02T06:41:50.056Z,100.00
2022-09-02T06:44:16.416Z,100.00
2022-09-02T06:46:42.734Z,100.00
2022-09-02T06:49:09.033Z,100.00
2022-09-02T06:51:35.271Z,100.00
2022-09-02T06:54:02.224Z,100.00
2022-09-02T06:56:28.536Z,100.00
2022-09-02T06:58:54.991Z,100.00
2022-09-02T07:01:21.366Z,100.00
2022-09-02T07:03:47.750Z,100.00
2022-09-02T07:06:14.033Z,100.00
2022-09-02T07:08:40.256Z,100.00
2022-09-02T07:11:06.532Z,100.00
2022-09-02T07:13:32.805Z,100.00
2022-09-02T07:15:59.094Z,100.00
2022-09-02T07:18:25.365Z,100.00
2022-09-02T07:20:51.661Z,100.00
2022-09-02T07:23:17.981Z,100.00
2022-09-02T07:25:44.272Z,100.00
2022-09-02T07:28:10.506Z,100.00
2022-09-02T07:30:36.965Z,100.00
2022-09-02T07:33:03.268Z,100.00
2022-09-02T07:35:29.567Z,100.00
2022-09-02T07:37:55.892Z,100.00
2022-09-02T07:40:22.259Z,100.00
2022-09-02T07:42:48.557Z,100.00
2022-09-02T07:45:14.922Z,100.00
2022-09-02T07:47:41.330Z,100.00
2022-09-02T07:50:18.905Z,100.00
2022-09-02T07:52:46.972Z,100.00
2022-09-02T07:55:15.108Z,100.00
2022-09-02T07:57:41.628Z,100.00
2022-09-02T08:00:07.894Z,100.00
2022-09-02T08:02:34.280Z,100.00
2022-09-02T08:05:00.550Z,100.00
2022-09-02T08:07:26.994Z,100.00
2022-09-02T08:09:53.346Z,100.00
2022-09-02T08:12:21.724Z,100.00
2022-09-02T08:14:49.003Z,100.00
2022-09-02T08:17:15.988Z,100.00
2022-09-02T08:19:43.752Z,100.00
2022-09-02T08:22:10.186Z,100.00
2022-09-02T08:24:36.486Z,100.00
2022-09-02T08:27:03.750Z,100.00
2022-09-02T08:29:30.216Z,100.00
2022-09-02T08:31:56.521Z,100.00
2022-09-02T08:34:22.852Z,100.00
2022-09-02T08:36:56.120Z,100.00
2022-09-02T08:41:54.499Z,100.00
2022-09-02T08:44:20.823Z,100.00
2022-09-02T08:46:47.207Z,100.00
2022-09-02T08:49:13.931Z,100.00
2022-09-02T08:51:40.197Z,100.00
2022-09-02T08:54:06.720Z,100.00
2022-09-02T08:56:33.115Z,100.00
2022-09-02T08:58:59.664Z,100.00
2022-09-02T09:01:26.027Z,100.00
2022-09-02T09:03:52.461Z,100.00
2022-09-02T09:06:19.004Z,100.00
2022-09-02T09:08:45.334Z,100.00
2022-09-02T09:11:11.582Z,100.00
2022-09-02T09:13:41.328Z,100.00
2022-09-02T09:16:08.045Z,100.00
2022-09-02T09:18:34.398Z,100.00
2022-09-02T09:21:00.760Z,100.00
2022-09-02T09:23:27.391Z,100.00
2022-09-02T09:25:54.022Z,100.00
2022-09-02T09:28:20.271Z,100.00
2022-09-02T09:30:46.615Z,100.00
2022-09-02T09:33:13.098Z,100.00
2022-09-02T09:35:39.468Z,100.00
2022-09-02T09:38:05.766Z,100.00
2022-09-02T09:40:32.165Z,100.00
2022-09-02T09:42:58.564Z,100.00
2022-09-02T09:45:24.954Z,100.00
2022-09-02T09:47:52.476Z,100.00
2022-09-02T09:50:24.890Z,100.00
2022-09-02T09:52:52.936Z,100.00
2022-09-02T09:55:24.710Z,100.00
2022-09-02T09:57:51.599Z,100.00
2022-09-02T10:00:18.634Z,100.00
2022-09-02T10:02:44.889Z,100.00
2022-09-02T10:05:11.360Z,100.00
2022-09-02T10:07:37.712Z,100.00
2022-09-02T10:10:03.955Z,100.00
2022-09-02T10:12:30.284Z,100.00
2022-09-02T10:14:56.537Z,100.00
2022-09-02T10:17:22.776Z,100.00
2022-09-02T10:19:49.050Z,100.00
2022-09-02T10:22:15.286Z,100.00
2022-09-02T10:24:41.641Z,100.00
2022-09-02T10:27:08.020Z,100.00
2022-09-02T10:29:36.956Z,100.00
2022-09-02T10:32:03.306Z,94.52
2022-09-02T10:34:29.619Z,93.58
2022-09-02T10:36:56.042Z,93.25
2022-09-02T10:39:22.405Z,93.29
2022-09-02T10:41:48.796Z,91.25
2022-09-02T10:44:15.067Z,91.65
2022-09-02T10:46:41.452Z,91.34
2022-09-02T10:49:08.097Z,92.92
2022-09-02T10:51:34.540Z,89.62
2022-09-02T10:54:02.987Z,86.75
2022-09-02T10:56:29.427Z,86.01
2022-09-02T10:58:55.748Z,86.08
2022-09-02T11:01:22.142Z,88.30
2022-09-02T11:03:49.865Z,90.96
2022-09-02T11:06:16.321Z,89.45
2022-09-02T11:08:42.706Z,86.58
2022-09-02T11:11:11.186Z,82.25
2022-09-02T11:13:37.550Z,81.65
2022-09-02T11:16:06.724Z,78.60
2022-09-02T11:18:33.381Z,79.17
2022-09-02T11:21:01.952Z,80.16
2022-09-02T11:23:28.258Z,81.07
2022-09-02T11:25:57.094Z,79.88
2022-09-02T11:28:24.221Z,83.55
2022-09-02T11:33:22.750Z,79.93
2022-09-02T11:35:49.597Z,80.93
2022-09-02T11:38:15.882Z,79.48
2022-09-02T11:40:42.306Z,81.69
2022-09-02T11:43:08.548Z,77.08
2022-09-02T11:45:34.868Z,76.20
2022-09-02T11:48:01.155Z,73.25
2022-09-02T11:50:27.634Z,72.91
2022-09-02T11:53:00.007Z,70.53
2022-09-02T11:55:26.312Z,69.65
2022-09-02T11:57:52.767Z,72.62
2022-09-02T12:00:19.078Z,70.16
2022-09-02T12:02:45.332Z,70.36
2022-09-02T12:05:11.935Z,69.44
2022-09-02T12:07:38.316Z,70.18
2022-09-02T12:10:04.652Z,70.62
2022-09-02T12:12:31.219Z,69.74
2022-09-02T12:14:57.526Z,70.81
2022-09-02T12:17:23.762Z,71.63
2022-09-02T12:19:50.097Z,71.26
2022-09-02T12:22:16.499Z,73.80
2022-09-02T12:24:43.491Z,69.59
2022-09-02T12:27:10.566Z,67.65
2022-09-02T12:29:37.055Z,67.87
2022-09-02T12:32:06.087Z,68.09
2022-09-02T12:34:32.358Z,65.34
2022-09-02T12:36:58.656Z,65.50
2022-09-02T12:39:25.029Z,63.53
2022-09-02T12:41:51.486Z,61.32
2022-09-02T12:44:17.948Z,62.41
2022-09-02T12:46:44.487Z,62.99
2022-09-02T12:49:11.109Z,63.94
2022-09-02T12:51:37.481Z,63.91
2022-09-02T12:54:04.145Z,65.00
2022-09-02T12:56:30.578Z,62.98
2022-09-02T12:59:02.212Z,62.20
2022-09-02T13:01:32.273Z,64.27
2022-09-02T13:03:59.730Z,65.56
2022-09-02T13:06:26.038Z,65.16
2022-09-02T13:08:52.389Z,64.97
2022-09-02T13:11:19.278Z,66.82
2022-09-02T13:13:45.580Z,62.15
2022-09-02T13:16:18.351Z,62.84
2022-09-02T13:18:45.598Z,61.85
2022-09-02T13:21:11.935Z,57.40
2022-09-02T13:23:38.232Z,57.59
2022-09-02T13:26:04.492Z,56.79
2022-09-02T13:30:57.110Z,57.18
2022-09-02T13:33:23.520Z,57.38
2022-09-02T13:35:49.822Z,57.04
2022-09-02T13:38:18.523Z,57.20
2022-09-02T13:40:47.285Z,57.79
2022-09-02T13:43:13.565Z,57.23
2022-09-02T13:45:39.800Z,56.88
2022-09-02T13:48:06.088Z,56.79
2022-09-02T13:50:32.494Z,56.51
2022-09-02T13:55:45.257Z,55.11
2022-09-02T13:58:11.582Z,52.65
2022-09-02T14:00:38.004Z,53.20
2022-09-02T14:03:04.440Z,52.28
2022-09-02T14:05:30.786Z,50.31
2022-09-02T14:07:57.037Z,48.44
2022-09-02T14:10:23.489Z,48.84
2022-09-02T14:12:49.869Z,47.93
2022-09-02T14:15:16.243Z,47.12
2022-09-02T14:17:42.595Z,47.48
2022-09-02T14:20:08.929Z,47.24
2022-09-02T14:22:35.289Z,46.07
2022-09-02T14:25:01.598Z,45.68
2022-09-02T14:27:27.981Z,44.81
2022-09-02T14:29:56.032Z,44.51
2022-09-02T14:32:22.289Z,43.96
2022-09-02T14:34:49.615Z,44.05
2022-09-02T14:37:16.217Z,44.12
2022-09-02T14:39:42.691Z,44.98
2022-09-02T14:42:11.308Z,44.96
2022-09-02T14:44:38.072Z,43.68
2022-09-02T14:47:04.641Z,43.29
2022-09-02T14:49:31.039Z,43.03
2022-09-02T14:51:57.731Z,43.77
2022-09-02T14:54:24.282Z,44.38
2022-09-02T14:56:50.535Z,43.93
2022-09-02T14:59:17.040Z,44.31
2022-09-02T15:01:43.423Z,43.74
2022-09-02T15:04:14.651Z,44.60
2022-09-02T15:06:41.148Z,43.85
2022-09-02T15:09:08.376Z,44.90
2022-09-02T15:11:35.137Z,45.05
2022-09-02T15:14:01.501Z,45.71
2022-09-02T15:16:28.198Z,45.38
2022-09-02T15:18:54.758Z,44.86
2022-09-02T15:21:21.230Z,44.08
2022-09-02T15:23:51.028Z,44.40
2022-09-02T15:26:18.678Z,43.72
2022-09-02T15:28:45.451Z,43.26
2022-09-02T15:31:19.168Z,42.75
2022-09-02T15:33:45.738Z,42.43
2022-09-02T15:36:12.247Z,43.45
2022-09-02T15:38:38.980Z,43.26
2022-09-02T15:41:05.651Z,44.40
2022-09-02T15:43:32.016Z,44.77
2022-09-02T15:45:58.494Z,45.51
2022-09-02T15:48:25.100Z,46.36
2022-09-02T15:50:54.296Z,46.71
2022-09-02T15:53:21.121Z,47.86
2022-09-02T15:55:47.525Z,47.74
2022-09-02T15:58:13.880Z,48.60
2022-09-02T16:00:40.261Z,48.60
2022-09-02T16:03:10.109Z,48.35
2022-09-02T16:05:36.628Z,48.41
2022-09-02T16:08:03.271Z,48.74
2022-09-02T16:10:29.760Z,49.10
2022-09-02T16:12:56.228Z,49.53
2022-09-02T16:15:22.507Z,49.64
2022-09-02T16:17:49.321Z,47.62
2022-09-02T16:20:19.228Z,47.53
2022-09-02T16:25:13.819Z,46.66
2022-09-02T16:27:40.145Z,46.21
2022-09-02T16:30:06.392Z,45.62
2022-09-02T16:32:32.706Z,45.63
2022-09-02T16:34:58.929Z,45.15
2022-09-02T16:37:25.182Z,45.63
2022-09-02T16:39:51.446Z,45.02
2022-09-02T16:42:17.739Z,44.18
2022-09-02T16:44:44.013Z,44.63
2022-09-02T16:47:12.404Z,44.99
2022-09-02T16:49:40.114Z,44.51
2022-09-02T16:52:06.366Z,44.76
2022-09-02T16:54:36.219Z,45.13
2022-09-02T16:57:04.975Z,45.55
2022-09-02T16:59:31.245Z,45.75
2022-09-02T17:01:57.573Z,46.37
2022-09-02T17:04:23.841Z,46.51
2022-09-02T17:06:50.861Z,46.43
2022-09-02T17:09:17.096Z,47.20
2022-09-02T17:11:43.337Z,47.92
2022-09-02T17:14:09.731Z,48.21
2022-09-02T17:16:36.016Z,48.51
2022-09-02T17:19:02.300Z,48.99
2022-09-02T17:21:28.621Z,49.48
2022-09-02T17:23:54.874Z,50.19
2022-09-02T17:26:21.100Z,50.89
2022-09-02T17:28:47.359Z,51.46
2022-09-02T17:31:13.661Z,52.01
2022-09-02T17:33:40.037Z,52.88
2022-09-02T17:36:06.257Z,53.62
2022-09-02T17:38:32.507Z,53.83
2022-09-02T17:40:58.813Z,54.71
2022-09-02T17:43:25.028Z,55.55
2022-09-02T17:45:51.309Z,55.77
2022-09-02T17:48:37.021Z,56.80
2022-09-02T17:51:04.089Z,57.56
2022-09-02T17:53:30.360Z,57.55
2022-09-02T17:55:56.642Z,58.30
2022-09-02T17:58:23.037Z,58.82
2022-09-02T18:00:49.335Z,59.59
2022-09-02T18:03:20.233Z,59.69
2022-09-02T18:05:48.341Z,60.52
2022-09-02T18:08:14.788Z,61.43
2022-09-02T18:10:41.045Z,62.27
2022-09-02T18:13:07.271Z,63.03
2022-09-02T18:15:33.767Z,63.71
2022-09-02T18:18:00.243Z,64.59
2022-09-02T18:20:26.520Z,65.56
2022-09-02T18:22:52.824Z,66.11
2022-09-02T18:25:19.362Z,67.37
2022-09-02T18:27:46.883Z,67.38
2022-09-02T18:30:13.129Z,68.39
2022-09-02T18:32:39.476Z,68.77
2022-09-02T18:35:05.806Z,70.40
2022-09-02T18:37:32.144Z,71.24
2022-09-02T18:40:02.628Z,71.38
2022-09-02T18:42:29.457Z,72.06
2022-09-02T18:44:55.726Z,72.63
2022-09-02T18:47:21.982Z,73.46
2022-09-02T18:49:48.423Z,73.84
2022-09-02T18:52:14.783Z,74.36
2022-09-02T18:54:41.249Z,75.19
2022-09-02T18:57:07.582Z,76.17
2022-09-02T18:59:33.905Z,77.03
2022-09-02T19:02:00.321Z,77.88
2022-09-02T19:04:29.412Z,78.73
2022-09-02T19:06:55.978Z,79.32
2022-09-02T19:09:22.441Z,81.07
2022-09-02T19:11:48.705Z,80.69
2022-09-02T19:14:14.996Z,80.67
2022-09-02T19:16:41.326Z,80.65
2022-09-02T19:19:07.635Z,81.66
2022-09-02T19:21:33.989Z,82.22
2022-09-02T19:24:00.443Z,82.90
2022-09-02T19:26:26.922Z,82.21
2022-09-02T19:28:53.209Z,83.08
2022-09-02T19:31:19.569Z,83.71
2022-09-02T19:33:45.971Z,83.82
2022-09-02T19:36:12.792Z,84.07
2022-09-02T19:38:39.144Z,84.14
2022-09-02T19:41:05.694Z,84.81
2022-09-02T19:43:32.101Z,84.27
2022-09-02T19:45:59.964Z,84.88
2022-09-02T19:48:27.357Z,85.14
2022-09-02T19:50:53.640Z,85.08
2022-09-02T19:53:19.858Z,85.03
2022-09-02T19:55:46.179Z,85.47
2022-09-02T19:58:12.537Z,85.78
2022-09-02T20:00:38.918Z,85.75
2022-09-02T20:03:05.450Z,85.46
2022-09-02T20:05:32.799Z,86.24
2022-09-02T20:07:59.190Z,86.48
2022-09-02T20:10:28.257Z,86.96
2022-09-02T20:12:56.325Z,86.97
2022-09-02T20:15:23.023Z,87.09
2022-09-02T20:17:49.457Z,87.29
2022-09-02T20:20:15.894Z,88.46
2022-09-02T20:22:42.209Z,88.69
2022-09-02T20:25:08.485Z,89.07
2022-09-02T20:27:34.803Z,89.94
2022-09-02T20:30:01.236Z,90.02
2022-09-02T20:32:27.505Z,90.85
2022-09-02T20:34:53.845Z,90.70
2022-09-02T20:37:20.191Z,91.17
2022-09-02T20:39:46.569Z,91.63
2022-09-02T20:42:12.934Z,91.38
2022-09-02T20:44:39.242Z,90.78
2022-09-02T20:47:05.602Z,90.67
2022-09-02T20:49:31.929Z,91.06
2022-09-02T20:51:58.384Z,90.91
2022-09-02T20:54:24.609Z,91.53
2022-09-02T20:56:51.033Z,91.02
2022-09-02T20:59:17.462Z,91.66
2022-09-02T21:01:46.010Z,91.86
2022-09-02T21:04:12.499Z,92.51
2022-09-02T21:06:38.881Z,92.47
2022-09-02T21:09:05.175Z,92.83
2022-09-02T21:11:31.792Z,94.15
2022-09-02T21:13:58.263Z,94.65
2022-09-02T21:16:24.735Z,95.40
2022-09-02T21:18:51.279Z,96.11
2022-09-02T21:21:17.550Z,97.28
2022-09-02T21:23:43.920Z,97.47
2022-09-02T21:26:10.325Z,98.38
2022-09-02T21:28:36.786Z,98.97
2022-09-02T21:31:03.131Z,100.00
2022-09-02T21:33:29.436Z,100.00
2022-09-02T21:35:55.964Z,100.00
2022-09-02T21:38:22.294Z,99.74
2022-09-02T21:40:48.643Z,99.88
2022-09-02T21:43:14.998Z,99.80
2022-09-02T21:45:41.342Z,100.00
2022-09-02T21:48:07.638Z,100.00
2022-09-02T21:50:33.948Z,100.00
2022-09-02T21:53:00.399Z,100.00
2022-09-02T21:55:26.772Z,100.00
2022-09-02T21:57:54.672Z,100.00
2022-09-02T22:00:21.893Z,100.00
2022-09-02T22:02:48.390Z,100.00
2022-09-02T22:05:14.870Z,100.00
2022-09-02T22:07:41.233Z,100.00
2022-09-02T22:10:07.571Z,100.00
2022-09-02T22:12:34.058Z,100.00
2022-09-02T22:15:00.363Z,100.00
2022-09-02T22:17:26.618Z,100.00
2022-09-02T22:19:52.867Z,100.00
2022-09-02T22:22:19.181Z,100.00
2022-09-02T22:24:45.818Z,100.00
2022-09-02T22:27:12.156Z,100.00
2022-09-02T22:29:38.456Z,100.00
2022-09-02T22:32:04.795Z,100.00
2022-09-02T22:34:31.101Z,100.00
2022-09-02T22:36:57.353Z,100.00
2022-09-02T22:39:23.826Z,100.00
2022-09-02T22:41:50.241Z,100.00
2022-09-02T22:44:16.559Z,100.00
2022-09-02T22:46:43.081Z,100.00
2022-09-02T22:49:09.401Z,100.00
2022-09-02T22:51:35.662Z,100.00
2022-09-02T22:54:02.129Z,100.00
2022-09-02T22:56:29.991Z,100.00
2022-09-02T22:58:56.425Z,100.00
2022-09-02T23:01:22.777Z,100.00
2022-09-02T23:03:49.436Z,100.00
2022-09-02T23:06:15.827Z,100.00
2022-09-02T23:08:42.105Z,100.00
2022-09-02T23:11:08.574Z,100.00
2022-09-02T23:13:34.817Z,100.00
2022-09-02T23:16:01.276Z,100.00
2022-09-02T23:18:27.626Z,100.00
2022-09-02T23:20:53.912Z,100.00
2022-09-02T23:23:20.185Z,100.00
2022-09-02T23:25:46.530Z,100.00
2022-09-02T23:28:12.825Z,100.00
2022-09-02T23:30:39.182Z,100.00
2022-09-02T23:33:05.586Z,100.00
2022-09-02T23:35:31.929Z,100.00
2022-09-02T23:37:58.193Z,100.00
2022-09-02T23:40:24.545Z,100.00
2022-09-02T23:42:50.874Z,100.00
2022-09-02T23:45:17.267Z,100.00
2022-09-02T23:47:43.518Z,100.00
2022-09-02T23:50:09.870Z,100.00
2022-09-02T23:52:36.176Z,100.00
2022-09-02T23:55:02.509Z,100.00
2022-09-02T23:57:28.861Z,100.00
2022-09-02T23:59:55.392Z,100.00
